Time;durP1;ratioP1;P1;durP2;ratioP2;P2;SDS_P1;SDS_P2;PMS_P1;PMS_P2;Temp;Humidity;BMP_temperature;BMP_pressure;BME280_temperature;BME280_humidity;BME280_pressure;Samples;Min_cycle;Max_cycle;Signal;HPM_P1;HPM_P2
2023/10/06 00:00:26;;;;;;;5.18;2.80;;;;;;;;;;481135;28;1216;-70
2023/10/06 00:00:50;;;;;;;4.95;2.75;;;;;;;;;;481707;28;993;-71
2023/10/06 00:01:08;;;;;;;5.63;2.83;;;;;;;;;;479898;28;1343;-72
2023/10/06 00:01:25;;;;;;;5.88;2.90;;;;;;;;;;479432;28;1346;-72
2023/10/06 00:01:44;;;;;;;5.85;2.90;;;;;;;;;;480374;28;1104;-71
2023/10/06 00:02:00;;;;;;;7.22;3.17;;;;;;;;;;478472;28;1481;-70
2023/10/06 00:02:30;;;;;;;8.75;3.40;;;;;;;;;;478580;28;1481;-70
2023/10/06 00:02:46;;;;;;;6.00;3.00;;;;;;;;;;480290;28;1382;-71
2023/10/06 00:03:06;;;;;;;6.80;3.13;;;;;;;;;;480850;28;1298;-72
2023/10/06 00:03:21;;;;;;;5.53;2.88;;;;;;;;;;481395;28;1106;-70
2023/10/06 00:03:38;;;;;;;4.13;2.47;;;;;;;;;;481580;28;1082;-70
2023/10/06 00:03:57;;;;;;;4.03;2.53;;;;;;;;;;481938;28;958;-71
2023/10/06 00:04:18;;;;;;;4.78;2.83;;;;;;;;;;483191;28;1062;-71
2023/10/06 00:04:38;;;;;;;5.43;2.95;;;;;;;;;;482552;28;1212;-70
2023/10/06 00:04:54;;;;;;;5.68;2.90;;;;;;;;;;480172;28;1254;-71
2023/10/06 00:05:11;;;;;;;5.87;3.00;;;;;;;;;;479599;28;1319;-71
2023/10/06 00:05:29;;;;;;;5.90;3.13;;;;;;;;;;479448;28;1597;-71
2023/10/06 00:05:44;;;;;;;6.65;3.28;;;;;;;;;;480537;28;1172;-71
2023/10/06 00:06:00;;;;;;;6.80;3.15;;;;;;;;;;479847;28;1206;-70
2023/10/06 00:06:22;;;;;;;6.60;3.22;;;;;;;;;;480864;28;1390;-71
2023/10/06 00:06:38;;;;;;;5.22;3.00;;;;;;;;;;479465;28;1252;-71
2023/10/06 00:06:54;;;;;;;5.63;3.00;;;;;;;;;;480354;28;1010;-70
2023/10/06 00:07:10;;;;;;;6.22;3.10;;;;;;;;;;479701;28;1079;-69
2023/10/06 00:07:26;;;;;;;6.67;2.97;;;;;;;;;;479646;28;1047;-71
2023/10/06 00:07:41;;;;;;;6.17;2.80;;;;;;;;;;481293;28;1256;-70
2023/10/06 00:07:57;;;;;;;5.82;2.88;;;;;;;;;;482691;28;1219;-71
2023/10/06 00:08:31;;;;;;;5.05;2.72;;;;;;;;;;482726;28;1307;-70
2023/10/06 00:08:51;;;;;;;6.20;2.78;;;;;;;;;;483731;28;1249;-70
2023/10/06 00:09:08;;;;;;;6.07;3.00;;;;;;;;;;483629;28;973;-71
2023/10/06 00:09:30;;;;;;;6.13;2.83;;;;;;;;;;483361;28;1145;-71
2023/10/06 00:09:45;;;;;;;6.82;2.92;;;;;;;;;;483329;28;943;-71
2023/10/06 00:10:01;;;;;;;5.43;2.92;;;;;;;;;;481961;28;1132;-70
2023/10/06 00:10:21;;;;;;;5.90;2.80;;;;;;;;;;483590;28;1233;-71
2023/10/06 00:10:44;;;;;;;5.05;2.63;;;;;;;;;;482581;28;2233;-70
2023/10/06 00:11:15;;;;;;;5.90;3.00;;;;;;;;;;484275;28;1956;-70
2023/10/06 00:11:31;;;;;;;7.85;2.88;;;;;;;;;;483084;28;1129;-72
2023/10/06 00:11:50;;;;;;;7.60;2.90;;;;;;;;;;483597;28;1085;-71
2023/10/06 00:12:05;;;;;;;6.22;3.03;;;;;;;;;;483322;28;1275;-70
2023/10/06 00:12:21;;;;;;;5.18;2.80;;;;;;;;;;481370;28;1445;-70
2023/10/06 00:12:39;;;;;;;5.80;2.60;;;;;;;;;;481168;28;1175;-71
2023/10/06 00:12:58;;;;;;;6.40;2.75;;;;;;;;;;480312;28;1002;-71
2023/10/06 00:13:20;;;;;;;5.93;2.85;;;;;;;;;;480035;28;1307;-70
2023/10/06 00:13:37;;;;;;;6.18;2.80;;;;;;;;;;479288;28;1195;-70
2023/10/06 00:14:00;;;;;;;7.18;2.97;;;;;;;;;;479258;28;1105;-71
2023/10/06 00:14:38;;;;;;;4.97;2.50;;;;;;;;;;479789;28;1540;-71
2023/10/06 00:14:56;;;;;;;6.47;2.80;;;;;;;;;;482231;28;1262;-70
2023/10/06 00:15:26;;;;;;;6.50;2.85;;;;;;;;;;480820;28;1799;-71
2023/10/06 00:15:43;;;;;;;5.35;2.85;;;;;;;;;;478582;28;1442;-71
2023/10/06 00:16:00;;;;;;;5.75;2.92;;;;;;;;;;480850;28;1144;-71
2023/10/06 00:16:16;;;;;;;5.60;2.83;;;;;;;;;;480304;28;1300;-71
2023/10/06 00:16:38;;;;;;;6.10;2.90;;;;;;;;;;479065;28;1536;-70
2023/10/06 00:16:57;;;;;;;5.85;2.70;;;;;;;;;;480279;28;991;-70
2023/10/06 00:17:21;;;;;;;6.97;2.80;;;;;;;;;;481073;28;1283;-71
2023/10/06 00:17:37;;;;;;;7.70;2.80;;;;;;;;;;481492;28;1248;-70
2023/10/06 00:18:00;;;;;;;6.78;2.58;;;;;;;;;;480772;28;1224;-71
2023/10/06 00:18:19;;;;;;;5.72;2.72;;;;;;;;;;481494;28;1192;-71
2023/10/06 00:18:37;;;;;;;5.90;2.97;;;;;;;;;;482380;28;1217;-70
2023/10/06 00:18:56;;;;;;;5.32;2.95;;;;;;;;;;482857;28;1321;-71
2023/10/06 00:19:51;;;;;;;4.95;2.70;;;;;;;;;;484080;28;1085;-71
2023/10/06 00:19:59;;;;;;;6.60;2.78;;;;;;;;;;480418;28;1423;-72
2023/10/06 00:20:39;;;;;;;3.88;2.30;;;;;;;;;;483557;28;1305;-72
2023/10/06 00:20:58;;;;;;;6.85;3.00;;;;;;;;;;481962;28;1133;-71
2023/10/06 00:21:21;;;;;;;6.95;3.00;;;;;;;;;;483793;28;961;-71
2023/10/06 00:21:43;;;;;;;5.18;2.70;;;;;;;;;;481544;28;1732;-71
2023/10/06 00:22:17;;;;;;;5.93;2.75;;;;;;;;;;479022;28;1271;-70
2023/10/06 00:22:37;;;;;;;6.22;2.72;;;;;;;;;;478489;28;1229;-72
2023/10/06 00:23:01;;;;;;;7.43;2.90;;;;;;;;;;477896;28;1454;-70
2023/10/06 00:23:26;;;;;;;7.60;3.00;;;;;;;;;;477605;28;1130;-71
2023/10/06 00:23:44;;;;;;;6.38;2.80;;;;;;;;;;475848;29;1342;-71
2023/10/06 00:24:00;;;;;;;7.95;3.00;;;;;;;;;;480054;28;1780;-70
2023/10/06 00:24:15;;;;;;;8.00;3.08;;;;;;;;;;477515;28;1206;-70
2023/10/06 00:24:31;;;;;;;6.87;2.90;;;;;;;;;;476795;28;1328;-71
2023/10/06 00:24:50;;;;;;;7.22;3.03;;;;;;;;;;479411;28;1421;-71
2023/10/06 00:25:11;;;;;;;5.88;2.90;;;;;;;;;;478992;28;970;-71
2023/10/06 00:25:27;;;;;;;5.25;2.67;;;;;;;;;;479692;28;1173;-71
2023/10/06 00:25:43;;;;;;;5.47;2.75;;;;;;;;;;479976;28;1080;-70
2023/10/06 00:25:59;;;;;;;5.47;2.75;;;;;;;;;;477519;28;1144;-70
2023/10/06 00:26:18;;;;;;;5.88;2.80;;;;;;;;;;480652;28;1043;-72
2023/10/06 00:26:34;;;;;;;6.35;2.88;;;;;;;;;;480880;28;1393;-70
2023/10/06 00:26:51;;;;;;;5.80;2.70;;;;;;;;;;479553;28;1296;-71
2023/10/06 00:27:11;;;;;;;5.15;2.63;;;;;;;;;;478386;28;1456;-71
2023/10/06 00:27:29;;;;;;;7.13;3.00;;;;;;;;;;478209;28;1101;-70
2023/10/06 00:27:46;;;;;;;6.00;2.80;;;;;;;;;;477246;28;1271;-70
2023/10/06 00:28:13;;;;;;;4.93;2.67;;;;;;;;;;475215;29;1176;-71
2023/10/06 00:28:32;;;;;;;6.32;2.90;;;;;;;;;;475939;28;969;-70
2023/10/06 00:28:47;;;;;;;6.05;2.90;;;;;;;;;;478647;28;1096;-70
2023/10/06 00:29:10;;;;;;;6.05;2.80;;;;;;;;;;478105;28;1201;-70
2023/10/06 00:29:27;;;;;;;5.93;3.05;;;;;;;;;;479745;28;1049;-71
2023/10/06 00:29:54;;;;;;;5.57;3.08;;;;;;;;;;479244;28;1797;-70
2023/10/06 00:30:11;;;;;;;5.43;2.92;;;;;;;;;;481116;28;1099;-70
2023/10/06 00:30:27;;;;;;;6.32;3.00;;;;;;;;;;481325;28;1073;-70
2023/10/06 00:30:42;;;;;;;4.90;2.70;;;;;;;;;;483784;28;1277;-70
2023/10/06 00:31:06;;;;;;;5.03;2.72;;;;;;;;;;482696;28;1954;-71
2023/10/06 00:31:24;;;;;;;5.63;2.90;;;;;;;;;;480832;28;1428;-71
2023/10/06 00:31:40;;;;;;;5.82;3.10;;;;;;;;;;480783;28;1040;-70
2023/10/06 00:32:21;;;;;;;5.75;2.97;;;;;;;;;;480808;28;1137;-70
2023/10/06 00:32:36;;;;;;;6.57;3.00;;;;;;;;;;480419;28;1341;-70
2023/10/06 00:32:54;;;;;;;6.30;3.00;;;;;;;;;;482124;28;1365;-71
2023/10/06 00:33:10;;;;;;;6.32;3.15;;;;;;;;;;481419;28;1137;-71
2023/10/06 00:33:32;;;;;;;5.60;2.90;;;;;;;;;;480612;28;1537;-70
2023/10/06 00:33:50;;;;;;;5.95;2.90;;;;;;;;;;481973;28;1148;-71
2023/10/06 00:34:05;;;;;;;5.47;3.03;;;;;;;;;;481687;28;1068;-70
2023/10/06 00:34:22;;;;;;;5.70;3.00;;;;;;;;;;482705;28;1024;-71
2023/10/06 00:34:39;;;;;;;5.90;2.93;;;;;;;;;;482951;28;1104;-70
2023/10/06 00:35:22;;;;;;;4.25;2.83;;;;;;;;;;483938;28;1055;-70
2023/10/06 00:35:35;;;;;;;6.43;3.10;;;;;;;;;;482442;28;1200;-72
2023/10/06 00:35:51;;;;;;;6.78;3.20;;;;;;;;;;483167;28;1144;-71
2023/10/06 00:36:17;;;;;;;6.07;2.97;;;;;;;;;;482566;28;1023;-70
2023/10/06 00:36:34;;;;;;;6.32;3.10;;;;;;;;;;481108;28;946;-70
2023/10/06 00:36:52;;;;;;;6.35;3.10;;;;;;;;;;480527;28;1068;-71
2023/10/06 00:37:11;;;;;;;7.15;3.13;;;;;;;;;;479048;28;1296;-71
2023/10/06 00:37:27;;;;;;;5.22;2.80;;;;;;;;;;480008;28;1175;-70
2023/10/06 00:37:43;;;;;;;5.05;2.78;;;;;;;;;;480805;28;915;-71
2023/10/06 00:38:11;;;;;;;5.88;2.85;;;;;;;;;;479112;28;1504;-72
2023/10/06 00:38:30;;;;;;;5.63;2.97;;;;;;;;;;478571;28;1146;-72
2023/10/06 00:38:50;;;;;;;5.50;3.05;;;;;;;;;;478884;28;1050;-71
2023/10/06 00:39:12;;;;;;;6.75;3.00;;;;;;;;;;479790;28;962;-70
2023/10/06 00:39:30;;;;;;;8.25;3.00;;;;;;;;;;478501;28;1265;-71
2023/10/06 00:39:46;;;;;;;7.22;3.08;;;;;;;;;;478179;28;3030;-71
2023/10/06 00:40:09;;;;;;;5.63;2.90;;;;;;;;;;478995;28;1456;-72
2023/10/06 00:40:25;;;;;;;5.57;2.90;;;;;;;;;;478788;28;1118;-71
2023/10/06 00:40:46;;;;;;;5.68;2.97;;;;;;;;;;479350;28;1185;-70
2023/10/06 00:41:06;;;;;;;5.50;2.80;;;;;;;;;;479445;28;1149;-71
2023/10/06 00:41:22;;;;;;;5.63;2.80;;;;;;;;;;478714;28;1164;-69
2023/10/06 00:41:37;;;;;;;4.97;2.90;;;;;;;;;;479993;28;1213;-71
2023/10/06 00:41:59;;;;;;;5.80;3.10;;;;;;;;;;480517;28;1160;-71
2023/10/06 00:42:19;;;;;;;5.68;3.08;;;;;;;;;;480600;28;1153;-71
2023/10/06 00:42:35;;;;;;;6.47;3.00;;;;;;;;;;479651;28;1250;-71
2023/10/06 00:42:51;;;;;;;5.72;2.85;;;;;;;;;;475617;28;1290;-71
2023/10/06 00:43:08;;;;;;;5.97;2.85;;;;;;;;;;476344;29;1428;-70
2023/10/06 00:43:36;;;;;;;6.03;2.80;;;;;;;;;;476836;28;1075;-71
2023/10/06 00:43:52;;;;;;;6.28;2.88;;;;;;;;;;478169;28;1109;-71
2023/10/06 00:44:11;;;;;;;5.90;2.90;;;;;;;;;;477419;28;1173;-69
2023/10/06 00:44:26;;;;;;;5.95;2.95;;;;;;;;;;478435;28;1033;-71
2023/10/06 00:44:45;;;;;;;6.93;3.03;;;;;;;;;;481170;28;1332;-71
2023/10/06 00:45:01;;;;;;;6.80;3.00;;;;;;;;;;482893;28;1096;-71
2023/10/06 00:45:17;;;;;;;5.50;2.80;;;;;;;;;;485469;28;1058;-73
2023/10/06 00:45:33;;;;;;;5.27;2.80;;;;;;;;;;482927;28;1279;-70
2023/10/06 00:45:49;;;;;;;5.20;3.00;;;;;;;;;;484346;28;1236;-71
2023/10/06 00:46:07;;;;;;;4.93;3.05;;;;;;;;;;482477;28;1292;-70
2023/10/06 00:46:23;;;;;;;5.20;2.95;;;;;;;;;;481378;28;1395;-71
2023/10/06 00:46:42;;;;;;;5.13;2.80;;;;;;;;;;481645;28;1068;-71
2023/10/06 00:46:59;;;;;;;4.97;2.80;;;;;;;;;;479327;28;1713;-71
2023/10/06 00:47:15;;;;;;;6.15;3.08;;;;;;;;;;480242;28;1098;-70
2023/10/06 00:47:38;;;;;;;6.07;3.00;;;;;;;;;;480550;28;1224;-71
2023/10/06 00:47:54;;;;;;;6.78;2.90;;;;;;;;;;479964;28;1555;-71
2023/10/06 00:48:14;;;;;;;7.30;3.03;;;;;;;;;;478913;28;1226;-70
2023/10/06 00:48:32;;;;;;;6.03;3.00;;;;;;;;;;479243;28;1423;-71
2023/10/06 00:48:56;;;;;;;5.82;2.97;;;;;;;;;;479637;28;1607;-72
2023/10/06 00:49:13;;;;;;;6.47;3.10;;;;;;;;;;479731;28;1331;-70
2023/10/06 00:49:29;;;;;;;6.13;2.88;;;;;;;;;;479409;28;1529;-71
2023/10/06 00:49:45;;;;;;;5.22;2.80;;;;;;;;;;480801;28;1351;-70
2023/10/06 00:50:05;;;;;;;6.82;3.00;;;;;;;;;;480698;28;1001;-72
2023/10/06 00:50:24;;;;;;;8.43;3.15;;;;;;;;;;480456;28;955;-71
2023/10/06 00:50:42;;;;;;;8.48;3.08;;;;;;;;;;480721;28;1030;-70
2023/10/06 00:51:01;;;;;;;6.22;2.83;;;;;;;;;;479886;28;1951;-71
2023/10/06 00:51:21;;;;;;;6.13;2.90;;;;;;;;;;478861;28;1122;-71
2023/10/06 00:51:41;;;;;;;6.68;3.00;;;;;;;;;;481861;28;1141;-71
2023/10/06 00:51:59;;;;;;;6.35;3.17;;;;;;;;;;483009;28;1090;-71
2023/10/06 00:52:15;;;;;;;5.35;3.00;;;;;;;;;;480467;28;1572;-70
2023/10/06 00:52:33;;;;;;;6.03;2.95;;;;;;;;;;480279;28;1114;-70
2023/10/06 00:52:50;;;;;;;6.75;3.13;;;;;;;;;;481037;28;1299;-71
2023/10/06 00:53:09;;;;;;;4.95;2.90;;;;;;;;;;479191;28;1051;-71
2023/10/06 00:53:31;;;;;;;5.20;2.80;;;;;;;;;;481204;28;1121;-71
2023/10/06 00:53:56;;;;;;;5.35;2.85;;;;;;;;;;481124;28;1285;-70
2023/10/06 00:54:11;;;;;;;5.72;2.60;;;;;;;;;;480823;28;1406;-70
2023/10/06 00:54:27;;;;;;;5.37;2.87;;;;;;;;;;480771;28;976;-72
2023/10/06 00:54:44;;;;;;;5.28;3.15;;;;;;;;;;481318;28;1053;-72
2023/10/06 00:55:05;;;;;;;6.18;3.10;;;;;;;;;;481571;28;989;-71
2023/10/06 00:55:21;;;;;;;6.93;2.92;;;;;;;;;;478859;28;1473;-71
2023/10/06 00:55:39;;;;;;;6.20;2.88;;;;;;;;;;479337;28;1004;-70
2023/10/06 00:55:56;;;;;;;5.95;3.03;;;;;;;;;;479516;28;1318;-71
2023/10/06 00:56:15;;;;;;;6.07;3.20;;;;;;;;;;479701;28;1056;-70
2023/10/06 00:56:31;;;;;;;6.38;3.10;;;;;;;;;;479404;28;1412;-70
2023/10/06 00:56:47;;;;;;;6.65;3.05;;;;;;;;;;481052;28;1069;-70
2023/10/06 00:57:08;;;;;;;5.93;2.90;;;;;;;;;;480012;28;1051;-70
2023/10/06 00:57:24;;;;;;;4.85;2.60;;;;;;;;;;481265;28;1693;-71
2023/10/06 00:57:50;;;;;;;6.38;2.90;;;;;;;;;;479873;28;1529;-70
2023/10/06 00:58:11;;;;;;;6.88;2.88;;;;;;;;;;480894;28;1326;-71
2023/10/06 00:58:34;;;;;;;7.35;2.92;;;;;;;;;;481571;28;1109;-71
2023/10/06 00:58:50;;;;;;;7.95;3.10;;;;;;;;;;480550;28;1061;-70
2023/10/06 00:59:06;;;;;;;6.45;3.00;;;;;;;;;;478090;28;1387;-71
2023/10/06 00:59:23;;;;;;;5.68;3.00;;;;;;;;;;477970;28;1377;-71
2023/10/06 00:59:41;;;;;;;4.72;2.70;;;;;;;;;;477102;28;1114;-70
2023/10/06 00:59:57;;;;;;;5.53;2.60;;;;;;;;;;476775;28;1138;-71
2023/10/06 01:00:21;;;;;;;6.20;2.90;;;;;;;;;;476542;28;1056;-70
2023/10/06 01:00:39;;;;;;;6.65;2.80;;;;;;;;;;473381;29;1010;-70
2023/10/06 01:00:56;;;;;;;3.70;2.35;;;;;;;;;;476841;28;1077;-69
2023/10/06 01:01:13;;;;;;;4.05;2.30;;;;;;;;;;480537;28;1161;-71
2023/10/06 01:01:28;;;;;;;5.30;2.65;;;;;;;;;;479376;28;1963;-71
2023/10/06 01:01:44;;;;;;;5.70;3.00;;;;;;;;;;479852;28;1148;-71
2023/10/06 01:02:00;;;;;;;5.25;2.97;;;;;;;;;;479158;28;1314;-71
2023/10/06 01:02:15;;;;;;;5.15;2.70;;;;;;;;;;480560;28;1145;-71
2023/10/06 01:02:33;;;;;;;5.13;2.60;;;;;;;;;;478457;28;1312;-71
2023/10/06 01:02:50;;;;;;;5.30;2.78;;;;;;;;;;479231;28;1191;-71
2023/10/06 01:03:14;;;;;;;5.15;2.80;;;;;;;;;;479349;28;1093;-71
2023/10/06 01:03:30;;;;;;;5.22;2.72;;;;;;;;;;478020;28;1202;-71
2023/10/06 01:04:25;;;;;;;6.18;3.00;;;;;;;;;;479693;28;1017;-70
2023/10/06 01:04:52;;;;;;;6.55;2.78;;;;;;;;;;477789;28;1283;-68
2023/10/06 01:05:09;;;;;;;7.47;2.90;;;;;;;;;;476881;28;963;-70
2023/10/06 01:05:25;;;;;;;8.25;3.03;;;;;;;;;;477645;28;978;-71
2023/10/06 01:05:45;;;;;;;6.03;2.65;;;;;;;;;;480243;28;1405;-71
2023/10/06 01:06:06;;;;;;;4.95;2.35;;;;;;;;;;479924;28;1248;-71
2023/10/06 01:06:27;;;;;;;6.30;2.80;;;;;;;;;;480121;28;1048;-70
2023/10/06 01:06:42;;;;;;;5.85;2.83;;;;;;;;;;482192;28;1387;-71
2023/10/06 01:07:00;;;;;;;5.88;2.60;;;;;;;;;;481377;28;995;-71
2023/10/06 01:07:18;;;;;;;5.13;2.67;;;;;;;;;;481370;28;1239;-70
2023/10/06 01:07:36;;;;;;;6.18;3.00;;;;;;;;;;479908;28;970;-71
2023/10/06 01:07:51;;;;;;;5.50;2.92;;;;;;;;;;480264;28;1182;-71
2023/10/06 01:08:11;;;;;;;5.53;2.78;;;;;;;;;;479109;28;1110;-70
2023/10/06 01:08:28;;;;;;;4.80;2.80;;;;;;;;;;480079;28;910;-70
2023/10/06 01:08:52;;;;;;;5.03;2.80;;;;;;;;;;481858;28;1030;-71
2023/10/06 01:09:16;;;;;;;5.35;2.70;;;;;;;;;;480875;28;1184;-70
2023/10/06 01:09:34;;;;;;;6.03;2.50;;;;;;;;;;479344;28;1133;-71
2023/10/06 01:09:59;;;;;;;6.60;2.63;;;;;;;;;;479938;28;1244;-70
2023/10/06 01:10:27;;;;;;;5.50;2.78;;;;;;;;;;481181;28;1029;-71
2023/10/06 01:10:43;;;;;;;4.47;2.50;;;;;;;;;;479589;28;1054;-71
2023/10/06 01:11:11;;;;;;;5.03;2.60;;;;;;;;;;478865;28;2013;-70
2023/10/06 01:11:27;;;;;;;5.15;2.70;;;;;;;;;;481137;28;1085;-70
2023/10/06 01:11:45;;;;;;;5.50;2.80;;;;;;;;;;482038;28;1095;-71
2023/10/06 01:12:05;;;;;;;6.22;2.92;;;;;;;;;;479030;28;1042;-70
2023/10/06 01:12:20;;;;;;;5.88;2.75;;;;;;;;;;479998;28;966;-71
2023/10/06 01:12:39;;;;;;;5.88;2.70;;;;;;;;;;479584;28;1228;-71
2023/10/06 01:12:56;;;;;;;6.30;2.78;;;;;;;;;;480186;28;1079;-70
2023/10/06 01:13:13;;;;;;;5.35;2.80;;;;;;;;;;480310;28;1062;-70
2023/10/06 01:13:29;;;;;;;5.18;2.70;;;;;;;;;;478397;28;951;-70
2023/10/06 01:13:57;;;;;;;5.90;2.70;;;;;;;;;;479024;28;1292;-71
2023/10/06 01:14:35;;;;;;;6.47;2.83;;;;;;;;;;479520;28;1280;-70
2023/10/06 01:14:51;;;;;;;5.03;2.65;;;;;;;;;;479659;28;1353;-71
2023/10/06 01:15:17;;;;;;;5.63;2.80;;;;;;;;;;479131;28;978;-71
2023/10/06 01:15:32;;;;;;;5.45;2.75;;;;;;;;;;479667;28;1837;-71
2023/10/06 01:15:49;;;;;;;5.95;2.60;;;;;;;;;;480692;28;1167;-71
2023/10/06 01:16:11;;;;;;;6.35;2.72;;;;;;;;;;480307;28;1181;-70
2023/10/06 01:16:35;;;;;;;6.47;2.92;;;;;;;;;;484301;28;1491;-71
2023/10/06 01:16:50;;;;;;;5.72;2.95;;;;;;;;;;479517;28;1252;-70
2023/10/06 01:17:18;;;;;;;5.40;3.05;;;;;;;;;;480033;28;1221;-70
2023/10/06 01:17:34;;;;;;;5.18;2.80;;;;;;;;;;478447;28;978;-70
2023/10/06 01:17:53;;;;;;;5.37;2.80;;;;;;;;;;476642;28;1222;-71
2023/10/06 01:18:18;;;;;;;5.30;2.83;;;;;;;;;;476661;28;1091;-71
2023/10/06 01:18:35;;;;;;;7.45;2.92;;;;;;;;;;478582;28;1431;-72
2023/10/06 01:18:52;;;;;;;6.68;3.00;;;;;;;;;;480432;28;1309;-70
2023/10/06 01:19:14;;;;;;;6.90;3.00;;;;;;;;;;480686;28;1198;-70
2023/10/06 01:19:33;;;;;;;5.90;2.85;;;;;;;;;;481206;28;1061;-72
2023/10/06 01:19:49;;;;;;;6.30;2.85;;;;;;;;;;482458;28;1084;-70
2023/10/06 01:20:05;;;;;;;6.85;3.15;;;;;;;;;;479019;28;1301;-72
2023/10/06 01:20:40;;;;;;;6.65;3.30;;;;;;;;;;479991;28;1131;-71
2023/10/06 01:20:56;;;;;;;6.00;2.83;;;;;;;;;;480017;28;1148;-71
2023/10/06 01:21:28;;;;;;;5.63;2.80;;;;;;;;;;479363;28;1434;-70
2023/10/06 01:21:46;;;;;;;5.75;2.97;;;;;;;;;;480133;28;973;-71
2023/10/06 01:22:42;;;;;;;4.80;2.80;;;;;;;;;;478960;28;968;-71
2023/10/06 01:22:58;;;;;;;4.50;2.78;;;;;;;;;;482493;28;986;-71
2023/10/06 01:23:22;;;;;;;4.13;2.70;;;;;;;;;;482722;28;1050;-70
2023/10/06 01:23:38;;;;;;;5.05;2.72;;;;;;;;;;479939;28;1107;-71
2023/10/06 01:23:58;;;;;;;6.32;2.97;;;;;;;;;;479058;28;1051;-70
2023/10/06 01:24:15;;;;;;;6.97;2.97;;;;;;;;;;479329;28;1307;-70
2023/10/06 01:24:31;;;;;;;6.30;2.80;;;;;;;;;;479644;28;969;-71
2023/10/06 01:24:46;;;;;;;6.47;2.80;;;;;;;;;;479129;28;1269;-71
2023/10/06 01:25:10;;;;;;;5.32;2.60;;;;;;;;;;478427;28;1005;-70
2023/10/06 01:25:25;;;;;;;4.55;2.55;;;;;;;;;;479033;28;958;-72
2023/10/06 01:25:42;;;;;;;6.03;2.80;;;;;;;;;;481949;28;1066;-71
2023/10/06 01:25:59;;;;;;;6.88;2.88;;;;;;;;;;482382;28;1426;-71
2023/10/06 01:26:15;;;;;;;5.60;2.60;;;;;;;;;;481958;28;1172;-70
2023/10/06 01:26:31;;;;;;;5.05;2.60;;;;;;;;;;480419;28;1096;-71
2023/10/06 01:26:49;;;;;;;6.10;2.77;;;;;;;;;;480252;28;1187;-70
2023/10/06 01:27:07;;;;;;;5.68;2.85;;;;;;;;;;479147;28;1352;-70
2023/10/06 01:27:26;;;;;;;4.97;2.72;;;;;;;;;;477661;28;1288;-71
2023/10/06 01:27:44;;;;;;;6.15;3.03;;;;;;;;;;478280;28;1099;-69
2023/10/06 01:28:03;;;;;;;5.82;2.85;;;;;;;;;;477799;28;1185;-70
2023/10/06 01:28:19;;;;;;;5.50;2.80;;;;;;;;;;477938;28;1135;-71
2023/10/06 01:28:35;;;;;;;6.35;2.90;;;;;;;;;;479933;28;1465;-72
2023/10/06 01:28:51;;;;;;;6.10;3.05;;;;;;;;;;479823;28;1237;-71
2023/10/06 01:29:10;;;;;;;5.07;3.10;;;;;;;;;;479503;28;1177;-70
2023/10/06 01:29:30;;;;;;;5.00;2.95;;;;;;;;;;480468;28;1278;-70
2023/10/06 01:29:51;;;;;;;5.07;2.72;;;;;;;;;;480049;28;1447;-70
2023/10/06 01:30:32;;;;;;;5.90;2.92;;;;;;;;;;480509;28;1018;-70
2023/10/06 01:30:49;;;;;;;5.87;2.93;;;;;;;;;;480848;28;1303;-71
2023/10/06 01:31:05;;;;;;;4.68;2.70;;;;;;;;;;481804;28;1998;-71
2023/10/06 01:31:20;;;;;;;5.40;2.60;;;;;;;;;;481047;28;1411;-71
2023/10/06 01:31:41;;;;;;;6.45;2.88;;;;;;;;;;480696;28;972;-71
2023/10/06 01:31:57;;;;;;;6.25;3.00;;;;;;;;;;481616;28;1256;-70
2023/10/06 01:32:15;;;;;;;6.53;3.00;;;;;;;;;;479950;28;1134;-72
2023/10/06 01:32:31;;;;;;;5.93;3.05;;;;;;;;;;480532;28;1386;-71
2023/10/06 01:32:50;;;;;;;5.43;2.72;;;;;;;;;;480341;28;1363;-70
2023/10/06 01:33:06;;;;;;;5.68;2.88;;;;;;;;;;480121;28;980;-71
2023/10/06 01:33:22;;;;;;;6.70;3.20;;;;;;;;;;481033;28;1057;-70
2023/10/06 01:33:38;;;;;;;6.43;2.95;;;;;;;;;;481234;28;1140;-71
2023/10/06 01:33:54;;;;;;;5.23;2.97;;;;;;;;;;480331;28;1086;-70
2023/10/06 01:34:10;;;;;;;6.05;3.00;;;;;;;;;;480886;28;1178;-73
2023/10/06 01:34:27;;;;;;;6.20;3.05;;;;;;;;;;480405;28;1224;-71
2023/10/06 01:34:44;;;;;;;4.80;2.95;;;;;;;;;;478935;28;1307;-70
2023/10/06 01:35:01;;;;;;;5.95;2.95;;;;;;;;;;478530;28;923;-71
2023/10/06 01:35:18;;;;;;;6.13;2.85;;;;;;;;;;477005;28;1407;-71
2023/10/06 01:35:34;;;;;;;4.55;2.85;;;;;;;;;;477047;28;1070;-70
2023/10/06 01:35:49;;;;;;;5.45;3.08;;;;;;;;;;477008;28;1505;-71
2023/10/06 01:36:13;;;;;;;5.93;3.03;;;;;;;;;;477435;28;1214;-72
2023/10/06 01:36:30;;;;;;;6.25;2.90;;;;;;;;;;477497;28;1260;-71
2023/10/06 01:36:51;;;;;;;5.05;2.90;;;;;;;;;;480750;28;1287;-70
2023/10/06 01:37:11;;;;;;;5.57;3.13;;;;;;;;;;480304;28;970;-71
2023/10/06 01:37:27;;;;;;;5.35;3.00;;;;;;;;;;479356;28;1264;-71
2023/10/06 01:37:43;;;;;;;4.85;2.92;;;;;;;;;;479467;28;1276;-71
2023/10/06 01:38:05;;;;;;;6.10;3.10;;;;;;;;;;480445;28;1243;-71
2023/10/06 01:38:24;;;;;;;8.68;3.22;;;;;;;;;;480087;28;1327;-70
2023/10/06 01:38:43;;;;;;;8.82;3.33;;;;;;;;;;482406;28;1256;-71
2023/10/06 01:39:04;;;;;;;7.57;3.33;;;;;;;;;;482822;28;1121;-71
2023/10/06 01:39:23;;;;;;;7.13;3.10;;;;;;;;;;483058;28;1453;-72
2023/10/06 01:39:40;;;;;;;6.75;3.00;;;;;;;;;;480438;28;1100;-70
2023/10/06 01:39:55;;;;;;;6.10;2.92;;;;;;;;;;481015;28;1291;-71
2023/10/06 01:40:35;;;;;;;5.23;2.80;;;;;;;;;;481698;28;945;-70
2023/10/06 01:40:54;;;;;;;4.93;2.90;;;;;;;;;;482364;28;1100;-71
2023/10/06 01:41:11;;;;;;;5.63;2.95;;;;;;;;;;481076;28;1412;-71
2023/10/06 01:41:28;;;;;;;5.93;3.00;;;;;;;;;;479923;28;1234;-72
2023/10/06 01:41:47;;;;;;;4.90;2.95;;;;;;;;;;482186;28;1105;-70
2023/10/06 01:42:07;;;;;;;5.18;2.95;;;;;;;;;;481569;28;1326;-72
2023/10/06 01:42:24;;;;;;;5.15;2.88;;;;;;;;;;480869;28;1310;-70
2023/10/06 01:42:40;;;;;;;5.10;2.90;;;;;;;;;;479239;28;1098;-71
2023/10/06 01:42:56;;;;;;;4.73;2.90;;;;;;;;;;481893;28;1180;-71
2023/10/06 01:43:14;;;;;;;5.43;3.00;;;;;;;;;;480795;28;1025;-71
2023/10/06 01:43:33;;;;;;;5.93;3.30;;;;;;;;;;481764;28;1377;-71
2023/10/06 01:43:49;;;;;;;5.43;3.15;;;;;;;;;;479804;28;1397;-71
2023/10/06 01:44:10;;;;;;;5.88;2.95;;;;;;;;;;480592;28;1027;-71
2023/10/06 01:44:27;;;;;;;5.63;3.20;;;;;;;;;;481539;28;1309;-71
2023/10/06 01:44:43;;;;;;;5.57;2.97;;;;;;;;;;478578;28;1316;-70
2023/10/06 01:45:13;;;;;;;6.20;3.08;;;;;;;;;;478394;28;982;-71
2023/10/06 01:45:29;;;;;;;7.10;3.35;;;;;;;;;;477756;28;986;-70
2023/10/06 01:45:44;;;;;;;6.25;3.35;;;;;;;;;;479355;28;1489;-69
2023/10/06 01:46:00;;;;;;;5.93;3.20;;;;;;;;;;478614;28;1206;-71
2023/10/06 01:46:16;;;;;;;7.10;3.20;;;;;;;;;;476657;28;1308;-69
2023/10/06 01:46:32;;;;;;;7.80;3.30;;;;;;;;;;479183;28;1095;-72
2023/10/06 01:46:53;;;;;;;6.03;3.13;;;;;;;;;;479920;28;1141;-71
2023/10/06 01:47:11;;;;;;;5.70;3.05;;;;;;;;;;479913;28;1041;-71
2023/10/06 01:47:29;;;;;;;7.63;3.40;;;;;;;;;;480445;28;1118;-71
2023/10/06 01:47:45;;;;;;;5.95;3.20;;;;;;;;;;481259;28;1343;-70
2023/10/06 01:48:40;;;;;;;6.38;3.08;;;;;;;;;;479969;28;1263;-71
2023/10/06 01:48:43;;;;;;;4.53;2.97;;;;;;;;;;482596;28;1057;-70
2023/10/06 01:48:56;;;;;;;5.38;2.85;;;;;;;;;;480449;28;1755;-71
2023/10/06 01:49:14;;;;;;;5.40;2.85;;;;;;;;;;478913;28;1253;-70
2023/10/06 01:49:31;;;;;;;5.45;2.97;;;;;;;;;;478952;28;1284;-70
2023/10/06 01:49:47;;;;;;;5.28;3.10;;;;;;;;;;478960;28;1285;-71
2023/10/06 01:50:04;;;;;;;5.65;3.08;;;;;;;;;;480431;28;1056;-71
2023/10/06 01:50:20;;;;;;;5.45;2.92;;;;;;;;;;480606;28;1040;-70
2023/10/06 01:50:36;;;;;;;5.70;3.00;;;;;;;;;;479772;28;1047;-70
2023/10/06 01:50:54;;;;;;;6.70;3.10;;;;;;;;;;479598;28;1226;-71
2023/10/06 01:51:15;;;;;;;5.53;2.95;;;;;;;;;;481041;28;2026;-71
2023/10/06 01:51:38;;;;;;;4.25;3.00;;;;;;;;;;480252;28;1079;-71
2023/10/06 01:51:54;;;;;;;4.40;3.00;;;;;;;;;;477709;28;1467;-71
2023/10/06 01:52:13;;;;;;;4.53;3.00;;;;;;;;;;478982;28;1068;-71
2023/10/06 01:52:29;;;;;;;6.22;3.30;;;;;;;;;;479280;28;1241;-71
2023/10/06 01:52:46;;;;;;;5.75;3.33;;;;;;;;;;479633;28;1213;-71
2023/10/06 01:53:06;;;;;;;5.82;3.20;;;;;;;;;;477689;28;1566;-71
2023/10/06 01:53:22;;;;;;;6.57;3.30;;;;;;;;;;476109;28;1336;-71
2023/10/06 01:53:40;;;;;;;5.65;3.22;;;;;;;;;;477440;28;1323;-71
2023/10/06 01:53:56;;;;;;;6.40;3.20;;;;;;;;;;477417;28;970;-70
2023/10/06 01:54:12;;;;;;;6.70;3.25;;;;;;;;;;478335;28;1039;-71
2023/10/06 01:54:34;;;;;;;6.28;3.15;;;;;;;;;;479822;28;1015;-71
2023/10/06 01:54:50;;;;;;;5.68;2.97;;;;;;;;;;482220;28;1248;-70
2023/10/06 01:55:09;;;;;;;5.22;2.83;;;;;;;;;;482754;28;1012;-70
2023/10/06 01:55:24;;;;;;;4.90;2.80;;;;;;;;;;482178;28;1340;-70
2023/10/06 01:55:40;;;;;;;5.37;2.90;;;;;;;;;;479804;28;1118;-71
2023/10/06 01:55:55;;;;;;;5.18;2.92;;;;;;;;;;481348;28;966;-71
2023/10/06 01:56:13;;;;;;;6.03;2.80;;;;;;;;;;482487;28;1355;-70
2023/10/06 01:56:31;;;;;;;5.65;2.80;;;;;;;;;;482245;28;1272;-71
2023/10/06 01:56:47;;;;;;;4.57;2.88;;;;;;;;;;482874;28;970;-70
2023/10/06 01:57:11;;;;;;;4.45;2.92;;;;;;;;;;482114;28;1033;-70
2023/10/06 01:57:26;;;;;;;4.75;2.88;;;;;;;;;;480201;28;1065;-71
2023/10/06 01:57:44;;;;;;;5.43;3.00;;;;;;;;;;482151;28;1079;-71
2023/10/06 01:57:59;;;;;;;5.18;3.10;;;;;;;;;;481542;28;978;-70
2023/10/06 01:58:15;;;;;;;5.07;3.03;;;;;;;;;;480161;28;953;-70
2023/10/06 01:58:31;;;;;;;5.05;3.03;;;;;;;;;;482075;28;1145;-70
2023/10/06 01:58:50;;;;;;;5.43;2.97;;;;;;;;;;481307;28;1189;-71
2023/10/06 01:59:06;;;;;;;6.03;3.08;;;;;;;;;;482557;28;1079;-70
2023/10/06 01:59:22;;;;;;;6.47;3.25;;;;;;;;;;482894;28;938;-71
2023/10/06 01:59:37;;;;;;;6.00;3.20;;;;;;;;;;481785;28;1215;-70